sensor_id;sensor_type;location;lat;lon;timestamp;P1;durP1;ratioP1;P2;durP2;ratioP2
9667;SDS011;4872;48.316;10.650;2023-09-30T04:10:25;25.67;;;13.73;;
9667;SDS011;4872;48.316;10.650;2023-09-30T04:12:52;23.50;;;12.60;;
9667;SDS011;4872;48.316;10.650;2023-09-30T04:15:19;24.57;;;13.30;;
9667;SDS011;4872;48.316;10.650;2023-09-30T04:17:46;24.47;;;13.17;;
9667;SDS011;4872;48.316;10.650;2023-09-30T04:20:13;26.90;;;13.47;;
9667;SDS011;4872;48.316;10.650;2023-09-30T04:22:48;26.07;;;13.77;;
9667;SDS011;4872;48.316;10.650;2023-09-30T04:25:16;25.10;;;14.13;;
9667;SDS011;4872;48.316;10.650;2023-09-30T04:27:44;24.93;;;13.20;;
9667;SDS011;4872;48.316;10.650;2023-09-30T04:30:13;24.10;;;12.77;;
9667;SDS011;4872;48.316;10.650;2023-09-30T04:32:40;23.90;;;13.00;;
9667;SDS011;4872;48.316;10.650;2023-09-30T04:35:07;22.30;;;12.60;;
9667;SDS011;4872;48.316;10.650;2023-09-30T04:37:34;21.27;;;12.33;;
9667;SDS011;4872;48.316;10.650;2023-09-30T04:40:02;20.00;;;12.60;;
9667;SDS011;4872;48.316;10.650;2023-09-30T04:42:32;21.13;;;12.63;;
9667;SDS011;4872;48.316;10.650;2023-09-30T04:45:02;24.17;;;11.60;;
9667;SDS011;4872;48.316;10.650;2023-09-30T04:47:32;26.40;;;12.37;;
9667;SDS011;4872;48.316;10.650;2023-09-30T04:49:59;22.70;;;11.90;;
9667;SDS011;4872;48.316;10.650;2023-09-30T04:52:29;22.23;;;13.43;;
9667;SDS011;4872;48.316;10.650;2023-09-30T04:54:56;20.57;;;11.53;;
9667;SDS011;4872;48.316;10.650;2023-09-30T04:57:23;21.37;;;11.07;;
9667;SDS011;4872;48.316;10.650;2023-09-30T04:59:50;24.33;;;12.23;;
9667;SDS011;4872;48.316;10.650;2023-09-30T05:02:18;20.63;;;11.70;;
9667;SDS011;4872;48.316;10.650;2023-09-30T05:04:45;20.77;;;11.00;;
9667;SDS011;4872;48.316;10.650;2023-09-30T05:07:11;21.13;;;11.40;;
9667;SDS011;4872;48.316;10.650;2023-09-30T05:09:38;20.50;;;12.50;;
9667;SDS011;4872;48.316;10.650;2023-09-30T05:12:06;20.80;;;11.73;;
9667;SDS011;4872;48.316;10.650;2023-09-30T05:14:33;23.50;;;12.00;;
9667;SDS011;4872;48.316;10.650;2023-09-30T05:17:01;22.63;;;11.77;;
9667;SDS011;4872;48.316;10.650;2023-09-30T05:19:30;22.80;;;12.20;;
9667;SDS011;4872;48.316;10.650;2023-09-30T05:21:58;22.20;;;11.07;;
9667;SDS011;4872;48.316;10.650;2023-09-30T05:24:41;19.27;;;10.93;;
9667;SDS011;4872;48.316;10.650;2023-09-30T05:27:08;21.97;;;11.00;;
9667;SDS011;4872;48.316;10.650;2023-09-30T05:29:35;23.80;;;12.00;;
9667;SDS011;4872;48.316;10.650;2023-09-30T05:32:01;20.73;;;11.30;;
9667;SDS011;4872;48.316;10.650;2023-09-30T05:34:28;21.70;;;12.00;;
9667;SDS011;4872;48.316;10.650;2023-09-30T05:36:55;24.20;;;11.60;;
9667;SDS011;4872;48.316;10.650;2023-09-30T05:39:23;18.23;;;10.37;;
9667;SDS011;4872;48.316;10.650;2023-09-30T05:41:51;20.63;;;10.07;;
9667;SDS011;4872;48.316;10.650;2023-09-30T05:44:19;23.63;;;11.63;;
9667;SDS011;4872;48.316;10.650;2023-09-30T05:46:47;16.27;;;10.60;;
9667;SDS011;4872;48.316;10.650;2023-09-30T05:49:13;16.57;;;10.77;;
9667;SDS011;4872;48.316;10.650;2023-09-30T05:51:41;18.43;;;10.93;;
9667;SDS011;4872;48.316;10.650;2023-09-30T05:54:07;17.90;;;10.30;;
9667;SDS011;4872;48.316;10.650;2023-09-30T05:56:35;19.67;;;10.73;;
9667;SDS011;4872;48.316;10.650;2023-09-30T05:59:04;20.83;;;10.97;;
9667;SDS011;4872;48.316;10.650;2023-09-30T06:01:31;20.30;;;10.60;;
9667;SDS011;4872;48.316;10.650;2023-09-30T06:03:59;17.00;;;10.30;;
9667;SDS011;4872;48.316;10.650;2023-09-30T06:06:26;19.50;;;11.43;;
9667;SDS011;4872;48.316;10.650;2023-09-30T06:08:54;22.03;;;11.57;;
9667;SDS011;4872;48.316;10.650;2023-09-30T06:11:23;22.97;;;10.73;;
9667;SDS011;4872;48.316;10.650;2023-09-30T06:13:53;18.90;;;11.47;;
9667;SDS011;4872;48.316;10.650;2023-09-30T06:16:21;21.20;;;11.33;;
9667;SDS011;4872;48.316;10.650;2023-09-30T06:18:49;20.03;;;11.70;;
9667;SDS011;4872;48.316;10.650;2023-09-30T06:21:15;21.60;;;11.43;;
9667;SDS011;4872;48.316;10.650;2023-09-30T06:23:45;20.20;;;10.90;;
9667;SDS011;4872;48.316;10.650;2023-09-30T06:26:13;21.43;;;12.70;;
9667;SDS011;4872;48.316;10.650;2023-09-30T06:28:40;23.93;;;11.20;;
9667;SDS011;4872;48.316;10.650;2023-09-30T06:31:07;18.93;;;11.00;;
9667;SDS011;4872;48.316;10.650;2023-09-30T06:33:35;18.63;;;10.93;;
9667;SDS011;4872;48.316;10.650;2023-09-30T06:36:07;20.23;;;11.27;;
9667;SDS011;4872;48.316;10.650;2023-09-30T06:38:34;22.87;;;11.47;;
9667;SDS011;4872;48.316;10.650;2023-09-30T06:41:02;22.03;;;12.13;;
9667;SDS011;4872;48.316;10.650;2023-09-30T06:43:29;18.63;;;10.37;;
9667;SDS011;4872;48.316;10.650;2023-09-30T06:45:56;18.57;;;10.80;;
9667;SDS011;4872;48.316;10.650;2023-09-30T06:48:23;18.70;;;10.70;;
9667;SDS011;4872;48.316;10.650;2023-09-30T06:50:51;20.20;;;10.53;;
9667;SDS011;4872;48.316;10.650;2023-09-30T06:53:19;24.63;;;10.80;;
9667;SDS011;4872;48.316;10.650;2023-09-30T06:55:48;16.90;;;9.33;;
9667;SDS011;4872;48.316;10.650;2023-09-30T06:58:16;17.23;;;9.57;;
9667;SDS011;4872;48.316;10.650;2023-09-30T07:00:46;16.53;;;9.10;;
9667;SDS011;4872;48.316;10.650;2023-09-30T07:03:13;15.67;;;9.40;;
9667;SDS011;4872;48.316;10.650;2023-09-30T07:05:40;17.77;;;9.33;;
9667;SDS011;4872;48.316;10.650;2023-09-30T07:08:09;18.43;;;8.30;;
9667;SDS011;4872;48.316;10.650;2023-09-30T07:10:36;14.53;;;8.77;;
9667;SDS011;4872;48.316;10.650;2023-09-30T07:13:02;14.73;;;8.63;;
9667;SDS011;4872;48.316;10.650;2023-09-30T07:15:31;15.07;;;8.93;;
9667;SDS011;4872;48.316;10.650;2023-09-30T07:17:58;18.00;;;8.97;;
9667;SDS011;4872;48.316;10.650;2023-09-30T07:20:24;20.83;;;9.27;;
9667;SDS011;4872;48.316;10.650;2023-09-30T07:22:51;15.33;;;8.50;;
9667;SDS011;4872;48.316;10.650;2023-09-30T07:25:20;16.13;;;9.27;;
9667;SDS011;4872;48.316;10.650;2023-09-30T07:27:46;16.23;;;8.67;;
9667;SDS011;4872;48.316;10.650;2023-09-30T07:30:13;17.20;;;8.97;;
9667;SDS011;4872;48.316;10.650;2023-09-30T07:32:41;16.67;;;9.63;;
9667;SDS011;4872;48.316;10.650;2023-09-30T07:35:08;17.13;;;9.20;;
9667;SDS011;4872;48.316;10.650;2023-09-30T07:37:35;17.57;;;9.73;;
9667;SDS011;4872;48.316;10.650;2023-09-30T07:40:02;16.57;;;8.90;;
9667;SDS011;4872;48.316;10.650;2023-09-30T07:42:31;16.27;;;9.07;;
9667;SDS011;4872;48.316;10.650;2023-09-30T07:45:00;14.77;;;8.27;;
9667;SDS011;4872;48.316;10.650;2023-09-30T07:47:28;15.70;;;8.47;;
9667;SDS011;4872;48.316;10.650;2023-09-30T07:49:56;17.07;;;9.50;;
9667;SDS011;4872;48.316;10.650;2023-09-30T07:52:22;16.37;;;8.67;;
9667;SDS011;4872;48.316;10.650;2023-09-30T07:54:51;16.27;;;7.97;;
9667;SDS011;4872;48.316;10.650;2023-09-30T07:57:18;14.07;;;8.23;;
9667;SDS011;4872;48.316;10.650;2023-09-30T07:59:46;13.77;;;8.33;;
9667;SDS011;4872;48.316;10.650;2023-09-30T08:02:14;16.47;;;8.97;;
9667;SDS011;4872;48.316;10.650;2023-09-30T08:04:40;12.83;;;7.97;;
9667;SDS011;4872;48.316;10.650;2023-09-30T08:07:07;16.33;;;7.90;;
9667;SDS011;4872;48.316;10.650;2023-09-30T08:09:34;12.60;;;7.23;;
9667;SDS011;4872;48.316;10.650;2023-09-30T08:12:02;11.97;;;7.83;;
9667;SDS011;4872;48.316;10.650;2023-09-30T08:14:29;12.70;;;7.20;;
9667;SDS011;4872;48.316;10.650;2023-09-30T08:16:57;12.43;;;7.50;;
9667;SDS011;4872;48.316;10.650;2023-09-30T08:19:24;15.87;;;7.33;;
9667;SDS011;4872;48.316;10.650;2023-09-30T08:21:51;11.80;;;7.30;;
9667;SDS011;4872;48.316;10.650;2023-09-30T08:24:17;12.07;;;7.13;;
9667;SDS011;4872;48.316;10.650;2023-09-30T08:26:44;12.73;;;6.97;;
9667;SDS011;4872;48.316;10.650;2023-09-30T08:29:11;13.40;;;7.10;;
9667;SDS011;4872;48.316;10.650;2023-09-30T08:31:37;12.83;;;7.00;;
9667;SDS011;4872;48.316;10.650;2023-09-30T08:34:05;10.23;;;6.57;;
9667;SDS011;4872;48.316;10.650;2023-09-30T08:36:33;10.77;;;6.93;;
9667;SDS011;4872;48.316;10.650;2023-09-30T08:39:00;11.33;;;6.63;;
9667;SDS011;4872;48.316;10.650;2023-09-30T08:41:30;10.07;;;6.03;;
9667;SDS011;4872;48.316;10.650;2023-09-30T08:43:59;9.60;;;5.80;;
9667;SDS011;4872;48.316;10.650;2023-09-30T08:46:28;9.53;;;6.07;;
9667;SDS011;4872;48.316;10.650;2023-09-30T08:48:57;10.93;;;7.30;;
9667;SDS011;4872;48.316;10.650;2023-09-30T08:51:27;16.03;;;6.90;;
9667;SDS011;4872;48.316;10.650;2023-09-30T08:53:55;9.80;;;6.60;;
9667;SDS011;4872;48.316;10.650;2023-09-30T08:56:24;10.87;;;6.33;;
9667;SDS011;4872;48.316;10.650;2023-09-30T08:58:53;10.50;;;5.67;;
9667;SDS011;4872;48.316;10.650;2023-09-30T09:01:22;13.33;;;6.27;;
9667;SDS011;4872;48.316;10.650;2023-09-30T09:03:50;10.33;;;6.50;;
9667;SDS011;4872;48.316;10.650;2023-09-30T09:06:17;11.33;;;6.57;;
9667;SDS011;4872;48.316;10.650;2023-09-30T09:08:46;9.83;;;6.97;;
9667;SDS011;4872;48.316;10.650;2023-09-30T09:11:13;11.03;;;6.40;;
9667;SDS011;4872;48.316;10.650;2023-09-30T09:13:47;11.87;;;5.87;;
9667;SDS011;4872;48.316;10.650;2023-09-30T09:16:16;9.97;;;5.77;;
9667;SDS011;4872;48.316;10.650;2023-09-30T09:18:44;11.00;;;6.10;;
9667;SDS011;4872;48.316;10.650;2023-09-30T09:21:13;7.60;;;5.77;;
9667;SDS011;4872;48.316;10.650;2023-09-30T09:23:43;10.93;;;6.27;;
9667;SDS011;4872;48.316;10.650;2023-09-30T09:26:12;9.57;;;6.53;;
9667;SDS011;4872;48.316;10.650;2023-09-30T09:28:44;10.57;;;6.43;;
9667;SDS011;4872;48.316;10.650;2023-09-30T09:31:19;12.73;;;7.47;;
9667;SDS011;4872;48.316;10.650;2023-09-30T09:33:48;9.90;;;5.70;;
9667;SDS011;4872;48.316;10.650;2023-09-30T09:36:15;8.43;;;5.73;;
9667;SDS011;4872;48.316;10.650;2023-09-30T09:38:45;10.60;;;6.57;;
9667;SDS011;4872;48.316;10.650;2023-09-30T09:41:16;9.60;;;6.33;;
9667;SDS011;4872;48.316;10.650;2023-09-30T09:43:43;12.17;;;5.77;;
9667;SDS011;4872;48.316;10.650;2023-09-30T09:46:10;13.07;;;7.17;;
9667;SDS011;4872;48.316;10.650;2023-09-30T09:48:39;13.00;;;7.50;;
9667;SDS011;4872;48.316;10.650;2023-09-30T09:51:06;10.93;;;6.50;;
9667;SDS011;4872;48.316;10.650;2023-09-30T09:53:37;12.27;;;6.93;;
9667;SDS011;4872;48.316;10.650;2023-09-30T09:56:07;11.23;;;6.57;;
9667;SDS011;4872;48.316;10.650;2023-09-30T09:58:40;11.00;;;6.83;;
9667;SDS011;4872;48.316;10.650;2023-09-30T10:01:08;12.50;;;6.17;;
9667;SDS011;4872;48.316;10.650;2023-09-30T10:03:36;9.50;;;5.43;;
9667;SDS011;4872;48.316;10.650;2023-09-30T10:06:04;9.83;;;5.53;;
9667;SDS011;4872;48.316;10.650;2023-09-30T10:08:32;11.37;;;6.53;;
9667;SDS011;4872;48.316;10.650;2023-09-30T10:11:02;11.67;;;6.33;;
9667;SDS011;4872;48.316;10.650;2023-09-30T10:19:14;9.40;;;6.50;;
9667;SDS011;4872;48.316;10.650;2023-09-30T10:24:44;11.07;;;6.83;;
9667;SDS011;4872;48.316;10.650;2023-09-30T10:27:30;10.73;;;6.27;;
9667;SDS011;4872;48.316;10.650;2023-09-30T10:29:59;14.43;;;6.40;;
9667;SDS011;4872;48.316;10.650;2023-09-30T10:35:43;16.53;;;8.10;;
9667;SDS011;4872;48.316;10.650;2023-09-30T10:41:09;9.63;;;6.37;;
9667;SDS011;4872;48.316;10.650;2023-09-30T10:43:38;12.20;;;8.00;;
9667;SDS011;4872;48.316;10.650;2023-09-30T10:52:01;12.70;;;7.17;;
9667;SDS011;4872;48.316;10.650;2023-09-30T10:54:28;10.77;;;6.70;;
9667;SDS011;4872;48.316;10.650;2023-09-30T10:56:56;14.70;;;7.97;;
9667;SDS011;4872;48.316;10.650;2023-09-30T10:59:25;16.03;;;8.33;;
9667;SDS011;4872;48.316;10.650;2023-09-30T11:01:56;12.87;;;7.97;;
9667;SDS011;4872;48.316;10.650;2023-09-30T11:04:24;12.50;;;8.50;;
9667;SDS011;4872;48.316;10.650;2023-09-30T11:06:52;15.23;;;7.67;;
9667;SDS011;4872;48.316;10.650;2023-09-30T11:09:19;14.40;;;7.27;;
9667;SDS011;4872;48.316;10.650;2023-09-30T11:11:48;13.13;;;8.10;;
9667;SDS011;4872;48.316;10.650;2023-09-30T11:14:16;13.00;;;7.50;;
9667;SDS011;4872;48.316;10.650;2023-09-30T11:16:44;14.23;;;8.40;;
9667;SDS011;4872;48.316;10.650;2023-09-30T11:19:12;12.93;;;8.20;;
9667;SDS011;4872;48.316;10.650;2023-09-30T11:21:40;15.40;;;7.97;;
9667;SDS011;4872;48.316;10.650;2023-09-30T11:24:16;16.23;;;9.33;;
9667;SDS011;4872;48.316;10.650;2023-09-30T11:26:43;13.63;;;8.57;;
9667;SDS011;4872;48.316;10.650;2023-09-30T11:29:11;15.53;;;9.63;;
9667;SDS011;4872;48.316;10.650;2023-09-30T11:31:41;14.20;;;8.53;;
9667;SDS011;4872;48.316;10.650;2023-09-30T11:34:09;14.50;;;8.80;;
9667;SDS011;4872;48.316;10.650;2023-09-30T11:36:41;13.10;;;8.17;;
9667;SDS011;4872;48.316;10.650;2023-09-30T11:39:21;14.57;;;8.83;;
9667;SDS011;4872;48.316;10.650;2023-09-30T11:41:48;17.47;;;8.83;;
9667;SDS011;4872;48.316;10.650;2023-09-30T11:44:15;15.03;;;8.27;;
9667;SDS011;4872;48.316;10.650;2023-09-30T11:46:52;14.97;;;8.27;;
9667;SDS011;4872;48.316;10.650;2023-09-30T11:49:27;15.33;;;8.33;;
9667;SDS011;4872;48.316;10.650;2023-09-30T11:51:58;13.03;;;8.13;;
9667;SDS011;4872;48.316;10.650;2023-09-30T11:54:29;14.90;;;8.83;;
9667;SDS011;4872;48.316;10.650;2023-09-30T11:56:57;16.33;;;9.10;;
9667;SDS011;4872;48.316;10.650;2023-09-30T11:59:24;14.67;;;8.57;;
9667;SDS011;4872;48.316;10.650;2023-09-30T12:01:51;16.73;;;8.90;;
9667;SDS011;4872;48.316;10.650;2023-09-30T12:04:18;15.17;;;8.30;;
9667;SDS011;4872;48.316;10.650;2023-09-30T12:06:45;16.83;;;8.93;;
9667;SDS011;4872;48.316;10.650;2023-09-30T12:09:14;15.53;;;8.90;;
9667;SDS011;4872;48.316;10.650;2023-09-30T12:11:42;13.47;;;8.33;;
9667;SDS011;4872;48.316;10.650;2023-09-30T12:14:10;16.60;;;9.80;;
9667;SDS011;4872;48.316;10.650;2023-09-30T12:16:38;14.23;;;8.97;;
9667;SDS011;4872;48.316;10.650;2023-09-30T12:19:06;14.27;;;8.90;;
9667;SDS011;4872;48.316;10.650;2023-09-30T12:21:33;17.97;;;9.07;;
9667;SDS011;4872;48.316;10.650;2023-09-30T12:24:01;15.80;;;9.37;;
9667;SDS011;4872;48.316;10.650;2023-09-30T12:26:30;16.10;;;8.27;;
9667;SDS011;4872;48.316;10.650;2023-09-30T12:28:57;19.67;;;9.73;;
9667;SDS011;4872;48.316;10.650;2023-09-30T12:31:24;15.27;;;8.53;;
9667;SDS011;4872;48.316;10.650;2023-09-30T12:33:51;13.90;;;8.07;;
9667;SDS011;4872;48.316;10.650;2023-09-30T12:36:19;16.70;;;9.13;;
9667;SDS011;4872;48.316;10.650;2023-09-30T12:38:47;14.57;;;8.73;;
9667;SDS011;4872;48.316;10.650;2023-09-30T12:41:13;14.10;;;9.67;;
9667;SDS011;4872;48.316;10.650;2023-09-30T12:43:42;13.93;;;8.70;;
9667;SDS011;4872;48.316;10.650;2023-09-30T12:46:09;15.43;;;9.40;;
9667;SDS011;4872;48.316;10.650;2023-09-30T12:48:38;19.53;;;9.87;;
9667;SDS011;4872;48.316;10.650;2023-09-30T12:51:05;17.77;;;9.60;;
9667;SDS011;4872;48.316;10.650;2023-09-30T12:53:35;17.90;;;9.83;;
9667;SDS011;4872;48.316;10.650;2023-09-30T12:56:01;17.20;;;8.90;;
9667;SDS011;4872;48.316;10.650;2023-09-30T12:58:28;16.50;;;9.40;;
9667;SDS011;4872;48.316;10.650;2023-09-30T13:00:56;15.30;;;9.50;;
9667;SDS011;4872;48.316;10.650;2023-09-30T13:03:23;15.50;;;8.77;;
9667;SDS011;4872;48.316;10.650;2023-09-30T13:05:50;15.77;;;8.90;;
9667;SDS011;4872;48.316;10.650;2023-09-30T13:08:17;14.97;;;8.93;;
9667;SDS011;4872;48.316;10.650;2023-09-30T13:10:44;16.63;;;9.47;;
9667;SDS011;4872;48.316;10.650;2023-09-30T13:13:10;18.67;;;11.00;;
9667;SDS011;4872;48.316;10.650;2023-09-30T13:15:37;14.07;;;9.30;;
9667;SDS011;4872;48.316;10.650;2023-09-30T13:18:06;14.77;;;9.23;;
9667;SDS011;4872;48.316;10.650;2023-09-30T13:20:33;14.97;;;9.37;;
9667;SDS011;4872;48.316;10.650;2023-09-30T13:23:00;14.57;;;8.80;;
9667;SDS011;4872;48.316;10.650;2023-09-30T13:25:28;15.77;;;9.87;;
9667;SDS011;4872;48.316;10.650;2023-09-30T13:27:55;14.30;;;9.07;;
9667;SDS011;4872;48.316;10.650;2023-09-30T13:30:22;15.83;;;9.43;;
9667;SDS011;4872;48.316;10.650;2023-09-30T13:32:48;15.33;;;9.03;;
9667;SDS011;4872;48.316;10.650;2023-09-30T13:35:16;17.13;;;9.93;;
9667;SDS011;4872;48.316;10.650;2023-09-30T13:37:43;14.87;;;9.27;;
9667;SDS011;4872;48.316;10.650;2023-09-30T13:40:11;14.77;;;9.40;;
9667;SDS011;4872;48.316;10.650;2023-09-30T13:42:38;15.97;;;9.33;;
9667;SDS011;4872;48.316;10.650;2023-09-30T13:45:05;15.13;;;9.00;;
9667;SDS011;4872;48.316;10.650;2023-09-30T13:47:33;14.90;;;8.77;;
9667;SDS011;4872;48.316;10.650;2023-09-30T13:50:00;15.07;;;9.30;;
9667;SDS011;4872;48.316;10.650;2023-09-30T13:52:30;15.77;;;9.77;;
9667;SDS011;4872;48.316;10.650;2023-09-30T13:54:57;16.47;;;8.93;;
9667;SDS011;4872;48.316;10.650;2023-09-30T13:57:23;15.60;;;8.80;;
9667;SDS011;4872;48.316;10.650;2023-09-30T13:59:50;15.33;;;8.90;;
9667;SDS011;4872;48.316;10.650;2023-09-30T14:02:17;12.67;;;8.03;;
9667;SDS011;4872;48.316;10.650;2023-09-30T14:04:44;15.17;;;8.90;;
9667;SDS011;4872;48.316;10.650;2023-09-30T14:07:11;14.87;;;8.37;;
9667;SDS011;4872;48.316;10.650;2023-09-30T14:09:40;14.67;;;8.33;;
9667;SDS011;4872;48.316;10.650;2023-09-30T14:12:06;14.90;;;8.60;;
9667;SDS011;4872;48.316;10.650;2023-09-30T14:14:33;14.87;;;8.70;;
9667;SDS011;4872;48.316;10.650;2023-09-30T14:16:59;16.13;;;8.87;;
9667;SDS011;4872;48.316;10.650;2023-09-30T14:19:32;14.13;;;8.53;;
9667;SDS011;4872;48.316;10.650;2023-09-30T14:21:59;14.60;;;9.73;;
9667;SDS011;4872;48.316;10.650;2023-09-30T14:24:26;15.30;;;8.83;;
9667;SDS011;4872;48.316;10.650;2023-09-30T14:26:54;14.00;;;8.27;;
9667;SDS011;4872;48.316;10.650;2023-09-30T14:29:21;13.77;;;8.37;;
9667;SDS011;4872;48.316;10.650;2023-09-30T14:31:49;13.77;;;8.53;;
9667;SDS011;4872;48.316;10.650;2023-09-30T14:34:16;13.53;;;8.07;;
9667;SDS011;4872;48.316;10.650;2023-09-30T14:36:43;15.87;;;9.13;;
9667;SDS011;4872;48.316;10.650;2023-09-30T14:39:10;13.23;;;8.30;;
9667;SDS011;4872;48.316;10.650;2023-09-30T14:41:37;14.23;;;8.50;;
9667;SDS011;4872;48.316;10.650;2023-09-30T14:44:05;14.33;;;9.40;;
9667;SDS011;4872;48.316;10.650;2023-09-30T14:46:33;14.87;;;8.70;;
9667;SDS011;4872;48.316;10.650;2023-09-30T14:48:59;14.70;;;8.53;;
9667;SDS011;4872;48.316;10.650;2023-09-30T14:51:26;15.30;;;9.17;;
9667;SDS011;4872;48.316;10.650;2023-09-30T14:53:53;14.27;;;8.03;;
9667;SDS011;4872;48.316;10.650;2023-09-30T14:56:20;12.77;;;7.97;;
9667;SDS011;4872;48.316;10.650;2023-09-30T14:58:46;13.10;;;8.93;;
9667;SDS011;4872;48.316;10.650;2023-09-30T15:01:15;11.60;;;8.10;;
9667;SDS011;4872;48.316;10.650;2023-09-30T15:03:42;14.27;;;8.93;;
9667;SDS011;4872;48.316;10.650;2023-09-30T15:06:09;12.97;;;9.13;;
9667;SDS011;4872;48.316;10.650;2023-09-30T15:08:36;13.30;;;8.10;;
9667;SDS011;4872;48.316;10.650;2023-09-30T15:11:03;13.37;;;8.23;;
9667;SDS011;4872;48.316;10.650;2023-09-30T15:13:29;12.23;;;8.00;;
9667;SDS011;4872;48.316;10.650;2023-09-30T15:15:56;14.73;;;8.67;;
9667;SDS011;4872;48.316;10.650;2023-09-30T15:18:24;11.90;;;8.33;;
9667;SDS011;4872;48.316;10.650;2023-09-30T15:20:51;13.07;;;8.37;;
9667;SDS011;4872;48.316;10.650;2023-09-30T15:23:18;14.70;;;8.97;;
9667;SDS011;4872;48.316;10.650;2023-09-30T15:25:45;16.97;;;8.67;;
9667;SDS011;4872;48.316;10.650;2023-09-30T15:28:12;13.80;;;8.83;;
9667;SDS011;4872;48.316;10.650;2023-09-30T15:30:39;12.13;;;8.37;;
9667;SDS011;4872;48.316;10.650;2023-09-30T15:33:06;15.00;;;8.90;;
9667;SDS011;4872;48.316;10.650;2023-09-30T15:35:34;12.80;;;8.43;;
9667;SDS011;4872;48.316;10.650;2023-09-30T15:38:02;12.00;;;8.17;;
9667;SDS011;4872;48.316;10.650;2023-09-30T15:40:29;13.80;;;8.53;;
9667;SDS011;4872;48.316;10.650;2023-09-30T15:42:57;16.40;;;8.50;;
9667;SDS011;4872;48.316;10.650;2023-09-30T15:45:24;12.33;;;8.13;;
9667;SDS011;4872;48.316;10.650;2023-09-30T15:47:50;12.57;;;7.67;;
9667;SDS011;4872;48.316;10.650;2023-09-30T15:50:18;14.63;;;8.60;;
9667;SDS011;4872;48.316;10.650;2023-09-30T15:52:46;12.90;;;8.07;;
9667;SDS011;4872;48.316;10.650;2023-09-30T15:55:13;13.87;;;8.07;;
9667;SDS011;4872;48.316;10.650;2023-09-30T15:57:39;13.27;;;8.50;;
9667;SDS011;4872;48.316;10.650;2023-09-30T16:00:08;13.97;;;8.10;;
9667;SDS011;4872;48.316;10.650;2023-09-30T16:02:36;12.90;;;8.23;;
9667;SDS011;4872;48.316;10.650;2023-09-30T16:05:03;14.77;;;7.93;;
9667;SDS011;4872;48.316;10.650;2023-09-30T16:07:31;14.37;;;8.50;;
9667;SDS011;4872;48.316;10.650;2023-09-30T16:09:59;11.50;;;8.10;;
9667;SDS011;4872;48.316;10.650;2023-09-30T16:12:26;13.37;;;8.20;;
9667;SDS011;4872;48.316;10.650;2023-09-30T16:14:52;13.57;;;9.13;;
9667;SDS011;4872;48.316;10.650;2023-09-30T16:17:19;13.80;;;7.97;;
9667;SDS011;4872;48.316;10.650;2023-09-30T16:19:46;14.87;;;8.87;;
9667;SDS011;4872;48.316;10.650;2023-09-30T16:22:13;20.97;;;8.93;;
9667;SDS011;4872;48.316;10.650;2023-09-30T16:24:39;21.43;;;8.50;;
9667;SDS011;4872;48.316;10.650;2023-09-30T16:27:07;15.43;;;8.30;;
9667;SDS011;4872;48.316;10.650;2023-09-30T16:29:34;12.67;;;7.97;;
9667;SDS011;4872;48.316;10.650;2023-09-30T16:32:03;15.80;;;9.60;;
9667;SDS011;4872;48.316;10.650;2023-09-30T16:34:30;13.03;;;8.07;;
9667;SDS011;4872;48.316;10.650;2023-09-30T16:36:56;17.63;;;8.80;;
9667;SDS011;4872;48.316;10.650;2023-09-30T16:39:23;13.30;;;8.53;;
9667;SDS011;4872;48.316;10.650;2023-09-30T16:41:50;17.73;;;8.47;;
9667;SDS011;4872;48.316;10.650;2023-09-30T16:44:18;16.13;;;8.23;;
9667;SDS011;4872;48.316;10.650;2023-09-30T16:46:46;14.83;;;8.47;;
9667;SDS011;4872;48.316;10.650;2023-09-30T16:49:13;14.97;;;8.40;;
9667;SDS011;4872;48.316;10.650;2023-09-30T16:51:41;20.03;;;8.87;;
9667;SDS011;4872;48.316;10.650;2023-09-30T16:54:07;14.30;;;7.97;;
9667;SDS011;4872;48.316;10.650;2023-09-30T16:56:34;15.23;;;8.57;;
9667;SDS011;4872;48.316;10.650;2023-09-30T16:59:02;16.40;;;9.27;;
9667;SDS011;4872;48.316;10.650;2023-09-30T17:01:30;15.43;;;8.97;;
9667;SDS011;4872;48.316;10.650;2023-09-30T17:03:58;14.07;;;8.77;;
9667;SDS011;4872;48.316;10.650;2023-09-30T17:06:25;15.53;;;8.70;;
9667;SDS011;4872;48.316;10.650;2023-09-30T17:08:52;19.53;;;9.27;;
9667;SDS011;4872;48.316;10.650;2023-09-30T17:11:18;14.50;;;9.93;;
9667;SDS011;4872;48.316;10.650;2023-09-30T17:13:46;15.07;;;9.13;;
9667;SDS011;4872;48.316;10.650;2023-09-30T17:16:16;16.50;;;9.13;;
9667;SDS011;4872;48.316;10.650;2023-09-30T17:18:44;16.27;;;8.90;;
9667;SDS011;4872;48.316;10.650;2023-09-30T17:21:11;12.53;;;9.00;;
9667;SDS011;4872;48.316;10.650;2023-09-30T17:23:38;16.60;;;10.57;;
9667;SDS011;4872;48.316;10.650;2023-09-30T17:26:05;16.37;;;9.70;;
9667;SDS011;4872;48.316;10.650;2023-09-30T17:28:32;16.50;;;9.33;;
9667;SDS011;4872;48.316;10.650;2023-09-30T17:31:00;14.97;;;8.93;;
9667;SDS011;4872;48.316;10.650;2023-09-30T17:33:28;20.93;;;11.37;;
9667;SDS011;4872;48.316;10.650;2023-09-30T17:35:59;19.93;;;11.60;;
9667;SDS011;4872;48.316;10.650;2023-09-30T17:38:26;20.00;;;10.20;;
9667;SDS011;4872;48.316;10.650;2023-09-30T17:40:53;15.53;;;9.77;;
9667;SDS011;4872;48.316;10.650;2023-09-30T17:43:20;19.20;;;9.70;;
9667;SDS011;4872;48.316;10.650;2023-09-30T17:45:47;22.63;;;10.27;;
9667;SDS011;4872;48.316;10.650;2023-09-30T17:48:14;22.00;;;11.00;;
9667;SDS011;4872;48.316;10.650;2023-09-30T17:50:41;19.73;;;10.37;;
9667;SDS011;4872;48.316;10.650;2023-09-30T17:53:09;21.10;;;10.23;;
9667;SDS011;4872;48.316;10.650;2023-09-30T17:55:36;22.53;;;10.97;;
9667;SDS011;4872;48.316;10.650;2023-09-30T17:58:03;18.60;;;11.10;;
9667;SDS011;4872;48.316;10.650;2023-09-30T18:00:31;17.73;;;10.50;;
9667;SDS011;4872;48.316;10.650;2023-09-30T18:02:58;18.13;;;9.83;;
9667;SDS011;4872;48.316;10.650;2023-09-30T18:05:24;20.43;;;10.77;;
9667;SDS011;4872;48.316;10.650;2023-09-30T18:07:52;16.53;;;10.43;;
9667;SDS011;4872;48.316;10.650;2023-09-30T18:10:20;24.77;;;13.20;;
9667;SDS011;4872;48.316;10.650;2023-09-30T18:12:47;15.67;;;11.20;;
9667;SDS011;4872;48.316;10.650;2023-09-30T18:15:14;15.73;;;10.20;;
9667;SDS011;4872;48.316;10.650;2023-09-30T18:17:41;17.10;;;9.77;;
9667;SDS011;4872;48.316;10.650;2023-09-30T18:20:08;18.07;;;11.00;;
9667;SDS011;4872;48.316;10.650;2023-09-30T18:22:36;19.43;;;11.07;;
9667;SDS011;4872;48.316;10.650;2023-09-30T18:25:06;17.53;;;10.17;;
9667;SDS011;4872;48.316;10.650;2023-09-30T18:27:35;15.77;;;10.00;;
9667;SDS011;4872;48.316;10.650;2023-09-30T18:30:02;16.17;;;10.30;;
9667;SDS011;4872;48.316;10.650;2023-09-30T18:32:30;15.47;;;9.97;;
9667;SDS011;4872;48.316;10.650;2023-09-30T18:34:58;16.23;;;9.37;;
9667;SDS011;4872;48.316;10.650;2023-09-30T18:37:24;17.50;;;10.47;;
9667;SDS011;4872;48.316;10.650;2023-09-30T18:39:52;18.63;;;10.93;;
9667;SDS011;4872;48.316;10.650;2023-09-30T18:42:19;16.40;;;10.13;;
9667;SDS011;4872;48.316;10.650;2023-09-30T18:44:48;16.57;;;9.57;;
9667;SDS011;4872;48.316;10.650;2023-09-30T18:47:16;15.13;;;10.27;;
9667;SDS011;4872;48.316;10.650;2023-09-30T18:49:43;22.20;;;14.23;;
9667;SDS011;4872;48.316;10.650;2023-09-30T18:52:10;23.33;;;14.10;;
9667;SDS011;4872;48.316;10.650;2023-09-30T18:54:36;15.67;;;10.03;;
9667;SDS011;4872;48.316;10.650;2023-09-30T18:57:03;19.33;;;10.50;;
9667;SDS011;4872;48.316;10.650;2023-09-30T18:59:30;16.53;;;10.30;;
9667;SDS011;4872;48.316;10.650;2023-09-30T19:01:58;16.30;;;11.10;;
9667;SDS011;4872;48.316;10.650;2023-09-30T19:04:25;19.57;;;10.43;;
9667;SDS011;4872;48.316;10.650;2023-09-30T19:06:51;14.90;;;9.67;;
9667;SDS011;4872;48.316;10.650;2023-09-30T19:09:18;15.37;;;10.20;;
9667;SDS011;4872;48.316;10.650;2023-09-30T19:11:45;17.33;;;10.30;;
9667;SDS011;4872;48.316;10.650;2023-09-30T19:14:13;16.50;;;10.00;;
9667;SDS011;4872;48.316;10.650;2023-09-30T19:16:39;20.70;;;9.80;;
9667;SDS011;4872;48.316;10.650;2023-09-30T19:19:09;15.67;;;9.37;;